Time;durP1;ratioP1;P1;durP2;ratioP2;P2;SDS_P1;SDS_P2;PMS_P1;PMS_P2;Temp;Humidity;BMP_temperature;BMP_pressure;BME280_temperature;BME280_humidity;BME280_pressure;Samples;Min_cycle;Max_cycle;Signal;HPM_P1;HPM_P2
2023/02/27 00:02:00;;;;;;;6.82;3.20;;;;;;;;;;5001685;28;20113;-73
2023/02/27 00:04:25;;;;;;;9.80;3.45;;;;;;;;;;5004502;28;20083;-73
2023/02/27 00:06:51;;;;;;;8.90;3.10;;;;;;;;;;5003265;28;20029;-73
2023/02/27 00:09:16;;;;;;;14.73;3.30;;;;;;;;;;5009996;28;20065;-73
2023/02/27 00:11:42;;;;;;;5.40;2.55;;;;;;;;;;5009679;28;20030;-73
2023/02/27 00:14:07;;;;;;;6.97;3.40;;;;;;;;;;5011260;28;20018;-73
2023/02/27 00:16:33;;;;;;;8.65;2.60;;;;;;;;;;5008996;28;20033;-73
2023/02/27 00:19:00;;;;;;;12.27;3.40;;;;;;;;;;5006760;28;20125;-73
2023/02/27 00:21:25;;;;;;;7.20;2.75;;;;;;;;;;5004715;28;20041;-73
2023/02/27 00:23:50;;;;;;;5.78;2.42;;;;;;;;;;5006500;28;20026;-73
2023/02/27 00:26:15;;;;;;;6.03;2.67;;;;;;;;;;5004652;28;20025;-73
2023/02/27 00:28:41;;;;;;;11.75;2.13;;;;;;;;;;5007931;28;20117;-73
2023/02/27 00:31:06;;;;;;;7.63;2.95;;;;;;;;;;5004286;28;20018;-73
2023/02/27 00:33:31;;;;;;;9.55;2.92;;;;;;;;;;5010707;28;20702;-73
2023/02/27 00:35:57;;;;;;;10.00;2.83;;;;;;;;;;5006324;28;20092;-73
2023/02/27 00:38:22;;;;;;;7.80;2.80;;;;;;;;;;5010702;28;20056;-73
2023/02/27 00:40:47;;;;;;;6.07;2.58;;;;;;;;;;5007543;28;20054;-73
2023/02/27 00:43:12;;;;;;;8.88;2.92;;;;;;;;;;5010116;28;20061;-73
2023/02/27 00:45:41;;;;;;;10.68;2.92;;;;;;;;;;5008661;28;20022;-73
2023/02/27 00:48:06;;;;;;;7.85;2.53;;;;;;;;;;5007984;28;20109;-73
2023/02/27 00:50:31;;;;;;;6.13;2.40;;;;;;;;;;5007850;28;20100;-73
2023/02/27 00:52:56;;;;;;;9.90;2.70;;;;;;;;;;5009004;28;20282;-73
2023/02/27 00:55:21;;;;;;;7.70;2.80;;;;;;;;;;5002418;28;20033;-73
2023/02/27 00:57:47;;;;;;;11.13;3.10;;;;;;;;;;5006981;28;20456;-72
2023/02/27 01:00:12;;;;;;;7.53;2.85;;;;;;;;;;5007650;28;20034;-72
2023/02/27 01:02:40;;;;;;;9.07;2.53;;;;;;;;;;5008095;28;20029;-73
2023/02/27 01:05:06;;;;;;;10.63;3.05;;;;;;;;;;5001452;28;20026;-73
2023/02/27 01:07:31;;;;;;;7.50;2.92;;;;;;;;;;5004161;28;20021;-73
2023/02/27 01:09:57;;;;;;;7.20;2.15;;;;;;;;;;5001264;28;20022;-73
2023/02/27 01:12:22;;;;;;;6.28;2.78;;;;;;;;;;5012142;28;20242;-73
2023/02/27 01:14:48;;;;;;;7.82;2.75;;;;;;;;;;5007576;28;20109;-73
2023/02/27 01:17:13;;;;;;;7.65;2.45;;;;;;;;;;5007197;28;20037;-73
2023/02/27 01:19:38;;;;;;;8.83;2.80;;;;;;;;;;5008280;28;20113;-73
2023/02/27 01:22:03;;;;;;;6.97;2.95;;;;;;;;;;5003986;28;20761;-73
2023/02/27 01:24:29;;;;;;;7.50;3.25;;;;;;;;;;5008635;28;20065;-73
2023/02/27 01:26:54;;;;;;;7.15;2.88;;;;;;;;;;5002501;28;20026;-73
2023/02/27 01:29:19;;;;;;;7.40;3.13;;;;;;;;;;5008299;28;20454;-73
2023/02/27 01:31:44;;;;;;;7.38;3.30;;;;;;;;;;5009884;28;20033;-72
2023/02/27 01:34:09;;;;;;;11.13;2.83;;;;;;;;;;5004316;28;20440;-72
2023/02/27 01:36:34;;;;;;;5.55;3.10;;;;;;;;;;5004786;28;20276;-72
2023/02/27 01:39:00;;;;;;;14.57;3.03;;;;;;;;;;5003402;28;20352;-72
2023/02/27 01:41:25;;;;;;;8.43;3.10;;;;;;;;;;5006490;28;20430;-72
2023/02/27 01:43:54;;;;;;;7.28;3.05;;;;;;;;;;5005950;28;20058;-72
2023/02/27 01:46:19;;;;;;;11.77;3.00;;;;;;;;;;5001833;28;20021;-72
2023/02/27 01:48:45;;;;;;;9.07;3.10;;;;;;;;;;5003383;28;20017;-72
2023/02/27 01:51:12;;;;;;;8.45;2.97;;;;;;;;;;5008824;28;20030;-72
2023/02/27 01:53:38;;;;;;;6.75;3.25;;;;;;;;;;5007709;28;20465;-72
2023/02/27 01:56:09;;;;;;;8.15;3.10;;;;;;;;;;5000654;28;20034;-72
2023/02/27 01:58:34;;;;;;;12.30;3.90;;;;;;;;;;5005085;28;20022;-72
2023/02/27 02:00:59;;;;;;;6.93;3.53;;;;;;;;;;5004819;28;20033;-72
2023/02/27 02:03:40;;;;;;;6.18;2.75;;;;;;;;;;5000216;28;20053;-72
2023/02/27 02:06:06;;;;;;;6.82;2.88;;;;;;;;;;5000732;28;20030;-72
2023/02/27 02:08:33;;;;;;;7.95;2.38;;;;;;;;;;5004779;28;20678;-72
2023/02/27 02:10:58;;;;;;;7.18;2.85;;;;;;;;;;5007120;28;20029;-72
2023/02/27 02:13:24;;;;;;;8.73;2.70;;;;;;;;;;5010388;28;20056;-72
2023/02/27 02:16:09;;;;;;;15.25;3.38;;;;;;;;;;5005658;28;20022;-72
2023/02/27 02:18:41;;;;;;;8.40;2.75;;;;;;;;;;5008315;28;20068;-72
2023/02/27 02:21:24;;;;;;;8.25;2.88;;;;;;;;;;5002572;28;20101;-72
2023/02/27 02:24:08;;;;;;;8.35;2.72;;;;;;;;;;5006808;28;20030;-72
2023/02/27 02:26:33;;;;;;;9.90;2.70;;;;;;;;;;5006277;28;20105;-72
2023/02/27 02:29:05;;;;;;;4.68;2.28;;;;;;;;;;5008459;28;20485;-72
2023/02/27 02:31:33;;;;;;;4.88;3.05;;;;;;;;;;5013245;28;20275;-72
2023/02/27 02:33:58;;;;;;;7.72;3.28;;;;;;;;;;5008269;28;20437;-72
2023/02/27 02:36:23;;;;;;;6.47;2.60;;;;;;;;;;5007001;28;20100;-72
2023/02/27 02:38:58;;;;;;;4.65;2.28;;;;;;;;;;5009358;28;20292;-72
2023/02/27 02:41:38;;;;;;;5.30;2.47;;;;;;;;;;5004422;28;20287;-72
2023/02/27 02:44:03;;;;;;;;;;;;;;;;;;5011588;28;20018;-72
2023/02/27 02:46:31;;;;;;;5.03;2.20;;;;;;;;;;5006837;28;19910;-72
2023/02/27 02:49:10;;;;;;;7.95;2.33;;;;;;;;;;5004320;28;20018;-72
2023/02/27 02:51:38;;;;;;;6.75;1.92;;;;;;;;;;4997782;28;20044;-72
2023/02/27 02:54:16;;;;;;;6.32;2.05;;;;;;;;;;5003287;28;20058;-72
2023/02/27 02:57:00;;;;;;;8.15;2.83;;;;;;;;;;5001810;28;20412;-72
2023/02/27 02:59:41;;;;;;;5.43;2.38;;;;;;;;;;5005017;28;20364;-72
2023/02/27 03:02:09;;;;;;;7.10;2.65;;;;;;;;;;5008645;28;20468;-72
2023/02/27 03:04:37;;;;;;;7.35;2.92;;;;;;;;;;5006425;28;20042;-72
2023/02/27 03:07:05;;;;;;;9.55;2.45;;;;;;;;;;5005106;28;20049;-72
2023/02/27 03:09:35;;;;;;;9.88;2.88;;;;;;;;;;5009977;28;20478;-72
2023/02/27 03:12:02;;;;;;;9.68;3.13;;;;;;;;;;5007248;28;20021;-72
2023/02/27 03:14:39;;;;;;;4.03;2.30;;;;;;;;;;5001215;28;20034;-72
2023/02/27 03:17:15;;;;;;;5.35;2.45;;;;;;;;;;5002129;28;20057;-72
2023/02/27 03:19:48;;;;;;;5.70;2.75;;;;;;;;;;5005879;28;20533;-72
2023/02/27 03:22:16;;;;;;;5.85;2.80;;;;;;;;;;5002550;28;20407;-71
2023/02/27 03:25:01;;;;;;;7.25;3.38;;;;;;;;;;5003181;28;20467;-71
2023/02/27 03:27:29;;;;;;;11.07;2.58;;;;;;;;;;5004206;28;20149;-72
2023/02/27 03:29:56;;;;;;;5.53;2.53;;;;;;;;;;5005087;28;20130;-72
2023/02/27 03:32:27;;;;;;;8.63;3.13;;;;;;;;;;5002047;28;20018;-71
2023/02/27 03:34:53;;;;;;;7.45;2.53;;;;;;;;;;5005935;28;20022;-72
2023/02/27 03:37:21;;;;;;;5.00;2.67;;;;;;;;;;5005464;28;20084;-72
2023/02/27 03:39:52;;;;;;;10.48;2.95;;;;;;;;;;5005318;28;20427;-72
2023/02/27 03:42:18;;;;;;;10.80;3.08;;;;;;;;;;5001474;28;20076;-72
2023/02/27 03:44:43;;;;;;;7.20;3.20;;;;;;;;;;5000005;28;20479;-72
2023/02/27 03:47:08;;;;;;;5.97;2.95;;;;;;;;;;4993423;28;20361;-72
2023/02/27 03:49:33;;;;;;;10.80;3.28;;;;;;;;;;4994666;28;20269;-72
2023/02/27 03:51:58;;;;;;;7.78;2.97;;;;;;;;;;5001123;28;20022;-72
2023/02/27 03:54:26;;;;;;;7.70;2.67;;;;;;;;;;5002176;28;20128;-72
2023/02/27 03:56:54;;;;;;;9.73;3.20;;;;;;;;;;5009446;28;20076;-72
2023/02/27 03:59:20;;;;;;;4.85;2.72;;;;;;;;;;5008852;28;20067;-71
2023/02/27 04:01:46;;;;;;;9.73;3.08;;;;;;;;;;5004890;28;20108;-72
2023/02/27 04:04:12;;;;;;;5.88;2.95;;;;;;;;;;5005213;28;20026;-72
2023/02/27 04:09:49;;;;;;;11.90;3.53;;;;;;;;;;5001640;28;20068;-71
2023/02/27 04:12:20;;;;;;;9.57;3.25;;;;;;;;;;5007585;28;20042;-72
2023/02/27 04:15:01;;;;;;;10.07;3.42;;;;;;;;;;5008636;28;20053;-72
2023/02/27 04:17:28;;;;;;;14.27;3.10;;;;;;;;;;5004056;28;20026;-72
2023/02/27 04:20:06;;;;;;;7.45;2.63;;;;;;;;;;5006416;28;20075;-71
2023/02/27 04:22:40;;;;;;;6.88;3.30;;;;;;;;;;5000981;28;20057;-72
2023/02/27 04:25:06;;;;;;;10.45;2.60;;;;;;;;;;4997756;28;20029;-71
2023/02/27 04:27:37;;;;;;;10.43;3.40;;;;;;;;;;5006765;28;20013;-72
2023/02/27 04:30:21;;;;;;;13.52;3.30;;;;;;;;;;5008389;28;20026;-72
2023/02/27 04:33:05;;;;;;;13.27;2.88;;;;;;;;;;5005612;28;20017;-72
2023/02/27 04:35:33;;;;;;;10.93;3.25;;;;;;;;;;5003851;28;20026;-72
2023/02/27 04:38:24;;;;;;;10.98;3.83;;;;;;;;;;5003763;28;20025;-72
2023/02/27 04:40:52;;;;;;;12.10;3.17;;;;;;;;;;5011237;28;20505;-72
2023/02/27 04:43:19;;;;;;;11.03;3.77;;;;;;;;;;5005023;28;20105;-71
2023/02/27 04:45:45;;;;;;;13.43;3.83;;;;;;;;;;5004471;28;20021;-72
2023/02/27 04:48:22;;;;;;;9.80;3.92;;;;;;;;;;5003544;28;20024;-72
2023/02/27 04:50:50;;;;;;;14.05;4.03;;;;;;;;;;5010011;28;20088;-72
2023/02/27 04:53:19;;;;;;;7.30;3.78;;;;;;;;;;5003427;28;20037;-72
2023/02/27 04:55:56;;;;;;;7.28;4.07;;;;;;;;;;5006676;28;20453;-72
2023/02/27 04:58:24;;;;;;;10.40;3.97;;;;;;;;;;5007271;28;20042;-71
2023/02/27 05:00:52;;;;;;;15.35;3.80;;;;;;;;;;5006198;28;20101;-71
2023/02/27 05:03:21;;;;;;;13.32;4.20;;;;;;;;;;5000588;28;20030;-70
2023/02/27 05:05:47;;;;;;;10.07;3.70;;;;;;;;;;5002213;28;20439;-70
2023/02/27 05:08:35;;;;;;;9.88;4.22;;;;;;;;;;5001440;28;20022;-70
2023/02/27 05:11:09;;;;;;;14.48;4.07;;;;;;;;;;5003514;28;20030;-70
2023/02/27 05:13:38;;;;;;;10.02;3.38;;;;;;;;;;5006108;28;20032;-70
2023/02/27 05:16:11;;;;;;;8.93;3.80;;;;;;;;;;5002868;28;20021;-71
2023/02/27 05:18:37;;;;;;;9.63;4.15;;;;;;;;;;5004786;28;20021;-70
2023/02/27 05:21:14;;;;;;;12.35;4.10;;;;;;;;;;5003197;28;20030;-71
2023/02/27 05:23:58;;;;;;;11.07;3.78;;;;;;;;;;4995987;28;20030;-70
2023/02/27 05:26:28;;;;;;;11.27;3.85;;;;;;;;;;5002868;28;20082;-70
2023/02/27 05:29:08;;;;;;;14.77;4.38;;;;;;;;;;4999645;28;20025;-70
2023/02/27 05:31:33;;;;;;;;;;;;;;;;;;5003894;28;20072;-72
2023/02/27 05:34:04;;;;;;;12.13;3.60;;;;;;;;;;5000866;28;19926;-72
2023/02/27 05:36:33;;;;;;;11.82;3.97;;;;;;;;;;5004156;28;20017;-72
2023/02/27 05:38:59;;;;;;;12.07;3.63;;;;;;;;;;5007658;28;20029;-72
2023/02/27 05:41:27;;;;;;;21.48;4.35;;;;;;;;;;4995574;28;20028;-72
2023/02/27 05:44:02;;;;;;;10.85;3.60;;;;;;;;;;4999445;28;20067;-72
2023/02/27 05:46:29;;;;;;;18.35;4.50;;;;;;;;;;5008448;28;20033;-71
2023/02/27 05:49:03;;;;;;;11.77;4.00;;;;;;;;;;5007702;28;20022;-72
2023/02/27 05:51:30;;;;;;;13.27;3.95;;;;;;;;;;5008322;28;20275;-73
2023/02/27 05:54:01;;;;;;;10.50;3.72;;;;;;;;;;5005014;28;20042;-73
2023/02/27 05:56:28;;;;;;;9.95;3.83;;;;;;;;;;5010646;28;20062;-72
2023/02/27 05:58:57;;;;;;;17.30;4.55;;;;;;;;;;5008026;28;20022;-72
2023/02/27 06:01:23;;;;;;;10.75;4.05;;;;;;;;;;5007418;28;20022;-72
2023/02/27 06:03:48;;;;;;;13.73;4.45;;;;;;;;;;5008068;28;20045;-73
2023/02/27 06:06:15;;;;;;;9.75;4.07;;;;;;;;;;5000133;28;20025;-73
2023/02/27 06:08:40;;;;;;;9.13;4.20;;;;;;;;;;5003477;28;20053;-73
2023/02/27 06:11:05;;;;;;;7.90;3.67;;;;;;;;;;5005553;28;20459;-73
2023/02/27 06:13:30;;;;;;;10.88;4.35;;;;;;;;;;5007602;28;20018;-73
2023/02/27 06:15:56;;;;;;;17.27;4.43;;;;;;;;;;5003135;28;20080;-73
2023/02/27 06:18:21;;;;;;;14.88;4.60;;;;;;;;;;5008030;28;20033;-72
2023/02/27 06:20:47;;;;;;;19.08;4.43;;;;;;;;;;5007770;28;20018;-72
2023/02/27 06:23:16;;;;;;;14.43;5.40;;;;;;;;;;5001933;28;20038;-72
2023/02/27 06:25:41;;;;;;;14.10;5.75;;;;;;;;;;5004235;28;20022;-72
2023/02/27 06:28:07;;;;;;;13.95;5.18;;;;;;;;;;5006060;28;20391;-72
2023/02/27 06:30:32;;;;;;;10.52;4.10;;;;;;;;;;5001942;28;20480;-72
2023/02/27 06:32:57;;;;;;;13.18;5.20;;;;;;;;;;5000170;28;22120;-72
2023/02/27 06:35:22;;;;;;;9.48;4.60;;;;;;;;;;5007260;28;20068;-72
2023/02/27 06:37:48;;;;;;;13.45;5.00;;;;;;;;;;5000442;28;20117;-72
2023/02/27 06:40:13;;;;;;;14.15;5.65;;;;;;;;;;5005639;28;20376;-72
2023/02/27 06:42:42;;;;;;;16.45;4.82;;;;;;;;;;5001942;28;20030;-72
2023/02/27 06:45:07;;;;;;;15.18;5.15;;;;;;;;;;5006674;28;20026;-71
2023/02/27 06:47:33;;;;;;;11.95;5.35;;;;;;;;;;4998836;28;20100;-71
2023/02/27 06:49:59;;;;;;;17.70;6.90;;;;;;;;;;4998232;28;20030;-71
2023/02/27 06:52:24;;;;;;;23.67;5.30;;;;;;;;;;4999377;28;20068;-71
2023/02/27 06:54:49;;;;;;;16.15;4.90;;;;;;;;;;4999863;28;20100;-72
2023/02/27 06:57:14;;;;;;;10.20;4.85;;;;;;;;;;5004723;28;20051;-72
2023/02/27 06:59:40;;;;;;;18.83;5.25;;;;;;;;;;5005019;28;20023;-72
2023/02/27 07:02:06;;;;;;;16.40;4.75;;;;;;;;;;5006452;28;20102;-72
2023/02/27 07:04:31;;;;;;;13.52;4.65;;;;;;;;;;5007626;28;20148;-72
2023/02/27 07:06:57;;;;;;;14.45;5.00;;;;;;;;;;5003254;28;20022;-72
2023/02/27 07:09:22;;;;;;;13.15;5.65;;;;;;;;;;5005840;28;20018;-72
2023/02/27 07:11:48;;;;;;;12.68;4.63;;;;;;;;;;5008644;28;20097;-72
2023/02/27 07:14:15;;;;;;;22.25;6.20;;;;;;;;;;5005039;28;20026;-73
2023/02/27 07:16:40;;;;;;;12.55;6.82;;;;;;;;;;5005459;28;20024;-73
2023/02/27 07:19:06;;;;;;;12.75;5.47;;;;;;;;;;5002489;28;20025;-72
2023/02/27 07:21:31;;;;;;;13.13;5.32;;;;;;;;;;5007056;28;20110;-72
2023/02/27 07:23:56;;;;;;;11.27;5.50;;;;;;;;;;5005029;28;20025;-72
2023/02/27 07:26:21;;;;;;;9.93;5.27;;;;;;;;;;5001943;28;20034;-71
2023/02/27 07:28:47;;;;;;;14.35;5.03;;;;;;;;;;5002721;28;20265;-73
2023/02/27 07:31:13;;;;;;;17.73;5.25;;;;;;;;;;5011998;28;20022;-71
2023/02/27 07:33:38;;;;;;;14.85;5.38;;;;;;;;;;5001623;28;20104;-71
2023/02/27 07:36:03;;;;;;;16.70;5.30;;;;;;;;;;4998725;28;20065;-72
2023/02/27 07:38:31;;;;;;;17.45;5.22;;;;;;;;;;4998839;28;20056;-71
2023/02/27 07:40:57;;;;;;;22.20;5.43;;;;;;;;;;4999699;28;20025;-72
2023/02/27 07:43:22;;;;;;;16.52;5.65;;;;;;;;;;5004114;28;20019;-72
2023/02/27 07:45:49;;;;;;;22.75;5.72;;;;;;;;;;5010022;28;20041;-72
2023/02/27 07:48:15;;;;;;;16.13;5.82;;;;;;;;;;4999717;28;20033;-71
2023/02/27 07:50:40;;;;;;;15.55;5.43;;;;;;;;;;5009590;28;20022;-72
2023/02/27 07:53:06;;;;;;;23.27;5.82;;;;;;;;;;5000812;28;20426;-72
2023/02/27 07:55:32;;;;;;;18.73;5.90;;;;;;;;;;5003084;28;20115;-72
2023/02/27 07:57:57;;;;;;;13.55;5.22;;;;;;;;;;4997908;28;20426;-72
2023/02/27 08:00:22;;;;;;;12.17;5.67;;;;;;;;;;4995707;28;20472;-73
2023/02/27 08:02:47;;;;;;;15.20;4.35;;;;;;;;;;5002741;28;20269;-72
2023/02/27 08:05:12;;;;;;;12.98;5.00;;;;;;;;;;4997901;28;20030;-73
2023/02/27 08:07:38;;;;;;;19.63;5.25;;;;;;;;;;5004110;28;20057;-72
2023/02/27 08:10:03;;;;;;;12.13;4.60;;;;;;;;;;5005391;28;20006;-73
2023/02/27 08:12:28;;;;;;;14.60;4.75;;;;;;;;;;5005234;28;20491;-72
2023/02/27 08:14:54;;;;;;;14.13;4.78;;;;;;;;;;5001913;28;20458;-72
2023/02/27 08:17:19;;;;;;;9.00;4.30;;;;;;;;;;5003545;28;20096;-73
2023/02/27 08:19:44;;;;;;;14.20;4.37;;;;;;;;;;5005537;28;20272;-72
2023/02/27 08:22:10;;;;;;;17.67;5.13;;;;;;;;;;5002838;28;20633;-73
2023/02/27 08:24:35;;;;;;;13.32;4.45;;;;;;;;;;5004890;28;20018;-73
2023/02/27 08:27:01;;;;;;;12.17;4.93;;;;;;;;;;5009174;28;20638;-72
2023/02/27 08:29:27;;;;;;;10.87;4.53;;;;;;;;;;5005402;28;20376;-73
2023/02/27 08:31:52;;;;;;;10.00;4.43;;;;;;;;;;5004092;28;20390;-70
2023/02/27 08:34:17;;;;;;;10.93;4.20;;;;;;;;;;5000440;28;20021;-70
2023/02/27 08:36:42;;;;;;;8.57;4.20;;;;;;;;;;5003477;28;20363;-71
2023/02/27 08:39:08;;;;;;;9.43;4.33;;;;;;;;;;5008838;28;20280;-71
2023/02/27 08:41:33;;;;;;;12.80;4.50;;;;;;;;;;5006005;28;20265;-70
2023/02/27 08:43:58;;;;;;;14.75;4.28;;;;;;;;;;5005679;28;20025;-70
2023/02/27 08:46:23;;;;;;;13.67;4.83;;;;;;;;;;5005158;28;20033;-72
2023/02/27 08:48:49;;;;;;;13.52;3.95;;;;;;;;;;5009942;28;20307;-71
2023/02/27 08:51:14;;;;;;;12.13;4.03;;;;;;;;;;5006296;28;20407;-71
2023/02/27 08:53:39;;;;;;;11.53;4.70;;;;;;;;;;5002903;28;20364;-72
2023/02/27 08:56:04;;;;;;;15.63;4.87;;;;;;;;;;5006462;28;20277;-72
2023/02/27 08:58:29;;;;;;;14.55;5.00;;;;;;;;;;5008446;28;20753;-71
2023/02/27 09:00:55;;;;;;;10.23;4.10;;;;;;;;;;5007297;28;20022;-71
2023/02/27 09:03:20;;;;;;;12.53;3.70;;;;;;;;;;5007187;28;20281;-71
2023/02/27 09:05:46;;;;;;;13.27;4.22;;;;;;;;;;5009440;28;20316;-72
2023/02/27 09:08:11;;;;;;;9.82;4.50;;;;;;;;;;5005517;28;20108;-71
2023/02/27 09:10:37;;;;;;;12.00;4.07;;;;;;;;;;5002443;28;20025;-71
2023/02/27 09:13:02;;;;;;;12.38;4.82;;;;;;;;;;5008065;28;20265;-72
2023/02/27 09:15:27;;;;;;;16.23;4.23;;;;;;;;;;5006566;28;20025;-71
2023/02/27 09:17:55;;;;;;;8.48;3.45;;;;;;;;;;5002959;28;20296;-71
2023/02/27 09:20:20;;;;;;;6.85;2.90;;;;;;;;;;5008723;28;20025;-71
2023/02/27 09:22:45;;;;;;;10.30;3.15;;;;;;;;;;5006153;28;20024;-71
2023/02/27 09:25:11;;;;;;;11.13;3.05;;;;;;;;;;5005213;28;20169;-72
2023/02/27 09:27:36;;;;;;;10.60;3.70;;;;;;;;;;5006971;28;20109;-72
2023/02/27 09:30:01;;;;;;;6.70;3.17;;;;;;;;;;5006946;28;20268;-72
2023/02/27 09:32:26;;;;;;;9.38;4.03;;;;;;;;;;5006606;28;20018;-71
2023/02/27 09:34:52;;;;;;;7.50;2.90;;;;;;;;;;5003975;28;21554;-72
2023/02/27 09:37:18;;;;;;;9.65;3.33;;;;;;;;;;5005582;28;20096;-72
2023/02/27 09:39:43;;;;;;;5.75;2.20;;;;;;;;;;5003980;28;20113;-72
2023/02/27 09:42:23;;;;;;;3.70;1.90;;;;;;;;;;5003176;28;20109;-72
2023/02/27 09:44:50;;;;;;;2.72;1.52;;;;;;;;;;5003336;28;20042;-71
2023/02/27 09:47:17;;;;;;;4.47;1.42;;;;;;;;;;5001794;28;20034;-72
2023/02/27 09:49:48;;;;;;;4.10;0.88;;;;;;;;;;5005477;28;20029;-72
2023/02/27 09:52:13;;;;;;;6.15;1.33;;;;;;;;;;5008391;28;20130;-72
2023/02/27 09:54:39;;;;;;;3.75;1.10;;;;;;;;;;5004476;28;20133;-72
2023/02/27 09:57:05;;;;;;;5.28;0.88;;;;;;;;;;5005292;28;20080;-72
2023/02/27 09:59:35;;;;;;;7.88;1.30;;;;;;;;;;5004453;28;20022;-72
2023/02/27 10:02:07;;;;;;;4.97;0.88;;;;;;;;;;5006727;28;20021;-71
2023/02/27 10:04:40;;;;;;;2.58;0.90;;;;;;;;;;5003391;28;20053;-72
2023/02/27 10:07:12;;;;;;;2.53;0.75;;;;;;;;;;5001819;28;20022;-72
2023/02/27 10:09:53;;;;;;;1.85;0.60;;;;;;;;;;5004105;28;20072;-72
2023/02/27 10:12:19;;;;;;;4.38;0.90;;;;;;;;;;5001958;28;20033;-72
2023/02/27 10:14:46;;;;;;;7.10;0.95;;;;;;;;;;5006312;28;20034;-71
2023/02/27 10:17:14;;;;;;;1.63;0.57;;;;;;;;;;5002274;28;20037;-72
2023/02/27 10:19:42;;;;;;;1.70;0.63;;;;;;;;;;5003628;28;20037;-72
2023/02/27 10:22:11;;;;;;;3.38;0.68;;;;;;;;;;4998341;28;20029;-72
2023/02/27 10:24:38;;;;;;;1.75;0.80;;;;;;;;;;5001534;28;20030;-72
2023/02/27 10:27:06;;;;;;;6.32;0.90;;;;;;;;;;4999170;28;20100;-72
2023/02/27 10:29:40;;;;;;;9.45;1.20;;;;;;;;;;5002365;28;20018;-71
2023/02/27 10:32:22;;;;;;;2.38;0.95;;;;;;;;;;5003240;28;20467;-72
2023/02/27 10:34:50;;;;;;;3.30;1.08;;;;;;;;;;5005474;28;20029;-72
2023/02/27 10:37:17;;;;;;;4.00;1.20;;;;;;;;;;5007581;28;20144;-72
2023/02/27 10:39:56;;;;;;;3.22;1.45;;;;;;;;;;5007484;28;20025;-72
2023/02/27 10:42:22;;;;;;;2.47;1.23;;;;;;;;;;5007025;28;20033;-72
2023/02/27 10:44:52;;;;;;;2.42;1.30;;;;;;;;;;5002682;28;20077;-73
2023/02/27 10:47:19;;;;;;;5.37;1.20;;;;;;;;;;5009697;28;20017;-72
2023/02/27 10:49:44;;;;;;;4.43;1.15;;;;;;;;;;5004552;28;20848;-72
2023/02/27 10:52:11;;;;;;;4.00;1.67;;;;;;;;;;5003103;28;20541;-72
2023/02/27 10:54:37;;;;;;;2.50;1.33;;;;;;;;;;5001009;28;20501;-73
2023/02/27 10:57:05;;;;;;;3.65;1.58;;;;;;;;;;5002881;28;20024;-72
2023/02/27 10:59:31;;;;;;;4.45;1.42;;;;;;;;;;5007407;28;20034;-72
2023/02/27 11:01:58;;;;;;;4.22;1.83;;;;;;;;;;5005930;28;20459;-72
2023/02/27 11:04:24;;;;;;;5.38;1.98;;;;;;;;;;5007633;28;20045;-72
2023/02/27 11:06:51;;;;;;;3.05;1.20;;;;;;;;;;5007335;28;20024;-72
2023/02/27 11:09:25;;;;;;;5.25;1.23;;;;;;;;;;5005340;28;20057;-72
2023/02/27 11:11:50;;;;;;;4.78;1.48;;;;;;;;;;5004303;28;20021;-72
2023/02/27 11:14:32;;;;;;;4.70;1.23;;;;;;;;;;5009490;28;20041;-72
2023/02/27 11:17:01;;;;;;;3.70;1.65;;;;;;;;;;5005454;28;20108;-72
2023/02/27 11:19:36;;;;;;;2.05;0.70;;;;;;;;;;5010344;28;20035;-72
2023/02/27 11:22:05;;;;;;;4.53;1.52;;;;;;;;;;5006500;28;20493;-72
2023/02/27 11:24:30;;;;;;;11.65;1.60;;;;;;;;;;5006797;28;20033;-72
2023/02/27 11:27:04;;;;;;;2.97;1.90;;;;;;;;;;5003477;28;20018;-72
2023/02/27 11:29:30;;;;;;;5.53;1.60;;;;;;;;;;5004664;28;20014;-72
2023/02/27 11:31:56;;;;;;;2.83;1.70;;;;;;;;;;5005524;28;20033;-72
2023/02/27 11:34:24;;;;;;;4.30;1.50;;;;;;;;;;5009858;28;20487;-72
2023/02/27 11:36:51;;;;;;;6.35;1.83;;;;;;;;;;5007973;28;20021;-72
2023/02/27 11:39:22;;;;;;;7.35;1.70;;;;;;;;;;4998290;28;20125;-72
2023/02/27 11:41:47;;;;;;;4.65;1.35;;;;;;;;;;5005804;28;20111;-72
2023/02/27 11:44:15;;;;;;;2.83;1.42;;;;;;;;;;5005640;28;20076;-72
2023/02/27 11:46:41;;;;;;;6.47;1.75;;;;;;;;;;5009496;28;20100;-72
2023/02/27 11:49:25;;;;;;;7.18;1.65;;;;;;;;;;5002628;28;20117;-72
2023/02/27 11:52:02;;;;;;;3.10;0.93;;;;;;;;;;5004887;28;20014;-72
2023/02/27 11:54:36;;;;;;;3.92;1.20;;;;;;;;;;5008288;28;20029;-71
2023/02/27 11:57:06;;;;;;;6.28;1.45;;;;;;;;;;5005538;28;20025;-71
2023/02/27 11:59:31;;;;;;;10.30;1.40;;;;;;;;;;5006390;28;20394;-72
2023/02/27 12:02:03;;;;;;;8.38;1.17;;;;;;;;;;5003669;28;20021;-72
2023/02/27 12:04:38;;;;;;;4.40;1.30;;;;;;;;;;5007882;28;20100;-71
2023/02/27 12:07:30;;;;;;;3.33;1.02;;;;;;;;;;5002838;28;20085;-72
2023/02/27 12:09:58;;;;;;;6.20;2.13;;;;;;;;;;5008130;28;20042;-73
2023/02/27 12:12:28;;;;;;;4.55;1.20;;;;;;;;;;5008024;28;20511;-72
2023/02/27 12:14:53;;;;;;;2.28;0.98;;;;;;;;;;5007918;28;20113;-72
2023/02/27 12:17:28;;;;;;;4.17;1.37;;;;;;;;;;5003798;28;20817;-72
2023/02/27 12:20:06;;;;;;;7.78;1.40;;;;;;;;;;5008161;28;20303;-72
2023/02/27 12:22:34;;;;;;;2.70;1.25;;;;;;;;;;5000915;28;20022;-72
2023/02/27 12:25:04;;;;;;;2.95;0.95;;;;;;;;;;5003559;28;20029;-72
2023/02/27 12:27:29;;;;;;;;;;;;;;;;;;5004280;28;20046;-72
2023/02/27 12:29:59;;;;;;;4.38;0.95;;;;;;;;;;5005151;28;19953;-72
2023/02/27 12:32:27;;;;;;;1.45;0.63;;;;;;;;;;5003547;28;20022;-72
2023/02/27 12:35:00;;;;;;;3.05;1.20;;;;;;;;;;5004459;28;20460;-72
2023/02/27 12:37:27;;;;;;;2.55;1.00;;;;;;;;;;5005474;28;20383;-73
2023/02/27 12:39:57;;;;;;;4.35;0.98;;;;;;;;;;5001861;28;20033;-72
2023/02/27 12:42:23;;;;;;;4.22;1.30;;;;;;;;;;5006574;28;20034;-72
2023/02/27 12:45:14;;;;;;;2.90;1.02;;;;;;;;;;5006945;28;20510;-72
2023/02/27 12:47:40;;;;;;;4.32;0.95;;;;;;;;;;5007232;28;20026;-72
2023/02/27 12:50:09;;;;;;;2.23;0.70;;;;;;;;;;5004460;28;20040;-72
2023/02/27 12:52:42;;;;;;;1.58;0.77;;;;;;;;;;5007671;28;20688;-72
2023/02/27 12:55:07;;;;;;;4.00;1.45;;;;;;;;;;5002418;28;20561;-72
2023/02/27 12:57:42;;;;;;;2.33;1.02;;;;;;;;;;4998204;28;20030;-72
2023/02/27 13:00:15;;;;;;;4.25;1.00;;;;;;;;;;5002522;28;20487;-72
2023/02/27 13:02:48;;;;;;;6.28;1.02;;;;;;;;;;5003384;28;20022;-72
2023/02/27 13:05:21;;;;;;;4.63;0.95;;;;;;;;;;5004753;28;20240;-71
2023/02/27 13:07:46;;;;;;;4.05;1.20;;;;;;;;;;5006296;28;20467;-72
2023/02/27 13:10:23;;;;;;;4.10;0.77;;;;;;;;;;5005456;28;20025;-72
2023/02/27 13:12:58;;;;;;;3.95;1.15;;;;;;;;;;5004132;28;20269;-72
2023/02/27 13:15:36;;;;;;;5.20;1.02;;;;;;;;;;5005674;28;20076;-72
2023/02/27 13:18:20;;;;;;;4.22;0.80;;;;;;;;;;5006426;28;20108;-73
2023/02/27 13:20:52;;;;;;;1.40;0.70;;;;;;;;;;5005718;28;20036;-72
2023/02/27 13:23:24;;;;;;;7.25;1.50;;;;;;;;;;5005606;28;20091;-71
2023/02/27 13:25:51;;;;;;;3.95;1.33;;;;;;;;;;5006613;28;20116;-73
2023/02/27 13:28:22;;;;;;;3.75;1.00;;;;;;;;;;5004404;28;20029;-72
2023/02/27 13:31:06;;;;;;;8.60;1.10;;;;;;;;;;5005671;28;20100;-72
2023/02/27 13:33:35;;;;;;;5.00;1.08;;;;;;;;;;4991827;28;20072;-72
2023/02/27 13:36:06;;;;;;;4.05;0.90;;;;;;;;;;5005659;28;20025;-72
2023/02/27 13:38:45;;;;;;;2.13;1.00;;;;;;;;;;5007615;28;20029;-72
2023/02/27 13:41:19;;;;;;;4.68;1.23;;;;;;;;;;5000423;28;20509;-73
2023/02/27 13:43:44;;;;;;;5.35;1.17;;;;;;;;;;5007204;28;20494;-72
2023/02/27 13:46:25;;;;;;;4.25;1.13;;;;;;;;;;5001985;28;20026;-72
2023/02/27 13:48:53;;;;;;;1.85;0.85;;;;;;;;;;4996780;28;20029;-72
2023/02/27 13:51:33;;;;;;;7.20;2.20;;;;;;;;;;5008092;28;20467;-72
2023/02/27 13:53:58;;;;;;;;;;;;;;;;;;5003998;28;20083;-74
2023/02/27 13:56:24;;;;;;;8.75;1.85;;;;;;;;;;5002023;28;20021;-72
2023/02/27 13:58:49;;;;;;;1.85;0.90;;;;;;;;;;5004666;28;20025;-73
2023/02/27 14:01:17;;;;;;;3.40;1.10;;;;;;;;;;5002983;28;20050;-72
2023/02/27 14:03:50;;;;;;;5.88;0.75;;;;;;;;;;5001542;28;20052;-72
2023/02/27 14:06:23;;;;;;;2.97;0.88;;;;;;;;;;5007280;28;20037;-72
2023/02/27 14:08:49;;;;;;;1.80;0.80;;;;;;;;;;5000397;28;20049;-73
2023/02/27 14:11:17;;;;;;;2.47;0.80;;;;;;;;;;5003201;28;20503;-72
2023/02/27 14:13:56;;;;;;;3.92;0.70;;;;;;;;;;5009908;28;20046;-72
2023/02/27 14:16:36;;;;;;;4.88;1.17;;;;;;;;;;5001142;28;20018;-73
2023/02/27 14:19:01;;;;;;;;;;;;;;;;;;5011357;28;20101;-74
2023/02/27 14:21:48;;;;;;;4.03;0.98;;;;;;;;;;5006984;28;20386;-72
2023/02/27 14:24:14;;;;;;;4.32;1.08;;;;;;;;;;5011693;28;20614;-73
2023/02/27 14:26:39;;;;;;;1.25;0.70;;;;;;;;;;5002280;28;20101;-73
2023/02/27 14:29:04;;;;;;;7.00;1.20;;;;;;;;;;5009916;28;20360;-72
2023/02/27 14:31:31;;;;;;;5.30;1.10;;;;;;;;;;5007959;28;20032;-73
2023/02/27 14:34:03;;;;;;;10.35;1.38;;;;;;;;;;5007534;28;20049;-73
2023/02/27 14:36:29;;;;;;;4.43;0.90;;;;;;;;;;5009779;28;20099;-73
2023/02/27 14:38:58;;;;;;;4.07;1.00;;;;;;;;;;5005521;28;20308;-74
2023/02/27 14:41:37;;;;;;;6.88;1.50;;;;;;;;;;5011674;28;20030;-72
2023/02/27 14:44:02;;;;;;;6.97;1.58;;;;;;;;;;5010813;28;20219;-72
2023/02/27 14:46:29;;;;;;;3.50;1.00;;;;;;;;;;5009718;28;20485;-73
2023/02/27 14:49:02;;;;;;;7.13;1.58;;;;;;;;;;5005192;28;20120;-72
2023/02/27 14:51:32;;;;;;;2.95;1.02;;;;;;;;;;5006137;28;20457;-72
2023/02/27 14:53:58;;;;;;;2.33;0.90;;;;;;;;;;5004804;28;20655;-72